Wetterstation:     Jahr:     Auswahl:
Download: tageswerte-eltville-2021.csv
 
 
Datum
Temp. 2 m
Mittel
[⁰C]
Temp. 2 m
Maximum
[⁰C]
Temp. 2 m
Minimum
[⁰C]
rel. Feuchte
Mittel
[%]
Wind
Mittel
[m/s]
Regen
Summe
[mm]
Strahlung
Summe
[Wh/m²]
Bogrebe
Minimum
[⁰C]
01.01.2021 2,5 4,0 0,9 92,7 --- 0,1 --- ---
02.01.2021 2,5 4,0 0,9 82,8 --- 0,0 --- ---
03.01.2021 2,2 3,3 1,1 84,4 --- 0,3 --- ---
04.01.2021 1,8 2,7 0,5 91,9 --- 1,2 --- ---
05.01.2021 2,6 3,6 1,7 87,5 --- 0,3 --- ---
06.01.2021 2,9 4,6 1,7 87,2 --- 0,6 --- ---
07.01.2021 2,2 3,6 1,7 82,8 --- 0,0 --- ---
08.01.2021 2,3 3,6 1,4 85,2 --- 0,0 --- ---
09.01.2021 1,6 4,7 -1,1 77,6 --- 0,0 --- ---
10.01.2021 -0,5 5,3 -3,3 84,0 --- 0,0 --- ---
11.01.2021 -0,7 3,2 -5,2 78,5 --- 0,0 --- ---
12.01.2021 3,0 4,2 1,8 88,0 --- 6,6 --- ---
13.01.2021 2,8 6,5 0,0 79,9 --- 0,0 --- ---
14.01.2021 2,1 3,7 0,2 75,0 --- 0,2 --- ---
15.01.2021 1,5 5,9 -0,4 71,7 --- 0,0 --- ---
16.01.2021 0,0 2,3 -2,1 70,8 --- 0,8 --- ---
17.01.2021 -0,6 1,1 -2,2 93,0 --- 1,8 --- ---
18.01.2021 3,5 6,1 1,4 85,7 --- 0,1 --- ---
19.01.2021 3,8 5,1 1,0 81,6 --- 2,9 --- ---
20.01.2021 3,2 6,8 -0,3 82,6 --- 0,0 --- ---
21.01.2021 8,6 11,8 4,2 73,9 --- 1,9 --- ---
22.01.2021 6,4 11,3 3,5 84,6 --- 3,9 --- ---
23.01.2021 3,5 5,4 1,0 91,4 --- 0,6 --- ---
24.01.2021 2,0 4,9 -0,2 87,0 --- 4,9 --- ---
25.01.2021 1,2 3,0 0,0 88,7 --- 0,9 --- ---
26.01.2021 2,7 4,7 0,6 78,3 --- 0,0 --- ---
27.01.2021 1,4 2,5 0,3 92,5 --- 1,5 --- ---
28.01.2021 5,4 10,9 2,1 93,3 --- 13,2 --- ---
29.01.2021 8,8 11,3 6,8 83,2 --- 7,4 --- ---
30.01.2021 4,0 8,2 0,5 91,0 --- 6,9 --- ---
31.01.2021 1,1 1,8 0,5 84,6 --- 0,9 --- ---
01.02.2021 3,1 4,5 1,3 96,8 --- 2,3 --- ---
02.02.2021 5,8 7,0 4,7 96,0 --- 3,8 --- ---
03.02.2021 8,4 11,3 5,7 96,8 --- 23,6 --- ---
04.02.2021 8,2 11,6 4,8 77,3 --- 0,1 --- ---
05.02.2021 6,2 7,5 4,8 92,8 --- 5,2 --- ---
06.02.2021 5,5 6,9 3,6 95,0 --- 10,3 --- ---
07.02.2021 2,5 3,6 -0,2 94,6 --- 4,0 --- ---
08.02.2021 -2,8 -0,3 -4,9 85,6 --- 0,2 --- ---
09.02.2021 -5,6 -3,8 -8,4 70,9 --- 0,0 --- ---
10.02.2021 -5,9 -2,1 -9,3 68,0 --- 0,0 --- ---
11.02.2021 -2,7 0,8 -5,8 74,1 --- 0,0 --- ---
12.02.2021 -3,5 0,5 -6,2 63,6 --- 0,0 --- ---
13.02.2021 -3,3 1,7 -7,2 60,1 --- 0,0 --- ---
14.02.2021 -1,4 4,6 -6,6 59,5 --- 0,0 --- ---
15.02.2021 -1,0 0,6 -3,7 71,9 --- 2,0 --- ---
16.02.2021 3,6 9,6 0,5 88,2 --- 1,1 --- ---
17.02.2021 6,3 12,7 2,1 86,8 --- 0,0 --- ---
18.02.2021 3,9 8,0 -0,4 90,2 --- 0,1 --- ---
19.02.2021 5,9 11,1 0,5 84,2 --- 0,0 --- ---
20.02.2021 8,2 15,6 2,1 82,7 --- 0,0 --- ---
21.02.2021 8,0 18,4 1,0 78,6 --- 0,0 --- ---
22.02.2021 6,6 12,7 1,2 83,2 --- 0,0 --- ---
23.02.2021 10,3 18,6 4,5 79,3 --- 0,0 --- ---
24.02.2021 10,2 18,9 4,3 83,1 --- 0,0 --- ---
25.02.2021 9,8 19,4 3,2 75,5 --- 0,0 --- ---
26.02.2021 6,3 9,3 3,4 85,9 --- 0,8 --- ---
27.02.2021 5,8 11,6 1,6 76,5 --- 0,0 --- ---
28.02.2021 6,4 11,0 1,5 68,0 --- 0,0 --- ---
01.03.2021 6,0 13,6 -0,7 74,0 --- 0,0 --- ---
02.03.2021 7,3 15,0 1,3 74,3 --- 0,0 --- ---
03.03.2021 7,0 14,6 1,4 80,0 --- 0,0 --- ---
04.03.2021 8,2 14,5 4,6 79,2 --- 0,0 --- ---
05.03.2021 4,4 7,5 -0,1 66,7 --- 0,0 --- ---
06.03.2021 2,8 9,1 -2,4 59,4 --- 0,0 --- ---
07.03.2021 3,2 10,6 -3,1 60,6 --- 0,0 --- ---
08.03.2021 3,4 8,1 -2,1 68,9 --- 0,0 --- ---
09.03.2021 4,5 8,4 1,1 79,1 --- 0,0 --- ---
10.03.2021 7,3 10,5 3,5 74,0 --- 0,0 --- ---
11.03.2021 9,7 14,9 7,4 75,0 --- 3,0 --- ---
12.03.2021 7,7 10,9 4,8 68,4 --- 2,3 --- ---
13.03.2021 7,0 9,6 4,8 79,6 --- 3,7 --- ---
14.03.2021 5,3 8,7 3,4 79,3 --- 2,8 --- ---
15.03.2021 6,2 11,6 3,2 79,0 --- 4,3 --- ---
16.03.2021 6,5 9,6 4,4 72,4 --- 0,4 --- ---
17.03.2021 4,9 8,4 0,9 74,8 --- 1,7 --- ---
18.03.2021 4,1 10,1 -0,7 70,4 --- 1,7 --- ---
19.03.2021 3,4 7,6 0,4 75,8 --- 1,0 --- ---
20.03.2021 4,0 8,5 -0,8 55,9 --- 0,0 --- ---
21.03.2021 6,7 10,6 4,3 64,0 --- 0,0 --- ---
22.03.2021 6,3 8,6 3,7 69,6 --- 0,0 --- ---
23.03.2021 7,0 11,0 2,6 68,3 --- 0,0 --- ---
24.03.2021 7,3 15,5 0,0 72,4 --- 0,0 --- ---
25.03.2021 9,1 17,6 1,8 71,8 --- 0,0 --- ---
26.03.2021 11,6 17,4 6,0 66,0 --- 0,0 --- ---
27.03.2021 7,5 10,2 3,7 70,5 --- 0,4 --- ---
28.03.2021 9,7 15,9 3,0 66,3 --- 0,0 --- ---
29.03.2021 12,4 23,0 3,6 58,5 --- 0,0 --- ---
30.03.2021 13,1 23,5 4,3 57,1 --- 0,0 --- ---
31.03.2021 14,5 25,2 5,4 58,5 --- 0,0 --- ---
01.04.2021 15,8 26,6 8,1 58,3 --- 0,0 --- ---
02.04.2021 9,1 16,1 4,5 59,9 --- 0,0 --- ---
03.04.2021 9,2 14,7 4,0 50,6 --- 0,0 --- ---
04.04.2021 7,9 13,3 2,9 60,7 --- 0,0 --- ---
05.04.2021 4,0 8,1 0,9 72,9 --- 1,4 --- ---
06.04.2021 3,4 7,0 0,6 63,9 --- 0,0 --- ---
07.04.2021 3,0 5,6 0,9 68,8 --- 1,0 --- ---
08.04.2021 5,2 10,0 0,8 56,6 --- 0,0 --- ---
09.04.2021 8,9 17,2 -0,6 56,8 --- 0,1 --- ---
10.04.2021 9,7 10,9 8,8 87,6 --- 3,6 --- ---
11.04.2021 8,2 14,7 4,6 85,8 --- 1,3 --- ---
12.04.2021 5,5 9,8 1,2 70,0 --- 0,0 --- ---
13.04.2021 5,4 10,8 0,6 63,5 --- 0,0 --- ---
14.04.2021 5,6 10,9 0,7 61,4 --- 0,0 --- ---
15.04.2021 5,2 10,1 -0,2 64,5 --- 0,0 --- ---
16.04.2021 6,5 9,3 2,7 61,6 --- 0,0 --- ---
17.04.2021 8,5 14,0 3,3 58,9 --- 0,0 --- ---
18.04.2021 8,8 11,7 7,3 76,1 --- 2,9 --- ---
19.04.2021 10,3 14,1 6,7 78,5 --- 0,8 --- ---
20.04.2021 11,1 19,3 3,3 69,3 --- 0,0 --- ---
21.04.2021 12,4 20,2 4,6 63,9 --- 0,0 --- ---
22.04.2021 10,7 17,4 4,7 52,7 --- 0,0 --- ---
23.04.2021 10,4 17,5 3,2 57,3 --- 0,0 --- ---
24.04.2021 11,2 19,6 2,8 58,5 --- 0,0 --- ---
25.04.2021 10,8 17,9 4,7 49,5 --- 0,0 --- ---
26.04.2021 9,8 16,1 3,7 43,1 --- 0,0 --- ---
27.04.2021 10,9 17,9 3,3 44,3 --- 0,0 --- ---
28.04.2021 12,4 21,8 3,6 62,8 --- 8,1 --- ---
29.04.2021 12,0 18,4 6,6 70,1 --- 3,8 --- ---
30.04.2021 8,2 11,9 2,8 69,0 --- 0,0 --- ---
01.05.2021 10,5 16,0 3,9 61,5 --- 0,0 --- ---
02.05.2021 9,9 14,3 5,0 53,1 --- 0,0 --- ---
03.05.2021 9,6 15,3 2,2 58,3 --- 0,0 --- ---
04.05.2021 10,0 13,7 6,4 69,5 --- 0,0 --- ---
05.05.2021 8,1 12,3 5,1 71,4 --- 1,3 --- ---
06.05.2021 7,2 12,3 3,0 83,6 --- 5,7 --- ---
07.05.2021 8,6 13,5 4,2 67,8 --- 0,9 --- ---
08.05.2021 10,4 16,7 1,4 63,8 --- 0,0 --- ---
09.05.2021 18,0 28,2 6,6 59,0 --- 0,0 --- ---
10.05.2021 15,7 19,9 13,2 81,2 --- 6,2 --- ---
11.05.2021 13,6 15,0 12,2 94,1 --- 3,7 --- ---
12.05.2021 13,9 18,3 9,2 77,4 --- 0,0 --- ---
13.05.2021 13,1 20,0 6,9 76,2 --- 1,3 --- ---
14.05.2021 13,7 19,6 8,3 69,5 --- 0,8 --- ---
15.05.2021 12,2 15,0 9,4 75,8 --- 2,5 --- ---
16.05.2021 12,3 19,0 8,7 82,0 --- 9,2 --- ---
17.05.2021 11,8 17,1 9,0 85,6 --- 8,3 --- ---
18.05.2021 12,0 17,1 8,3 79,6 --- 3,6 --- ---
19.05.2021 12,8 19,0 6,9 72,5 --- 0,1 --- ---
20.05.2021 13,6 18,4 8,9 68,4 --- 0,0 --- ---
21.05.2021 14,1 18,1 9,5 64,5 --- 6,5 --- ---
22.05.2021 12,2 16,3 8,7 72,3 --- 1,4 --- ---
23.05.2021 12,8 18,5 8,0 67,7 --- 0,1 --- ---
24.05.2021 12,2 20,8 5,5 74,6 --- 0,9 --- ---
25.05.2021 10,6 15,3 9,0 79,1 --- 5,0 --- ---
26.05.2021 10,8 14,9 7,1 86,3 --- 5,6 --- ---
27.05.2021 11,7 16,1 6,7 80,5 --- 1,3 --- ---
28.05.2021 13,9 18,4 9,5 68,2 --- 0,0 --- ---
29.05.2021 14,9 23,2 7,2 64,2 --- 0,0 --- ---
30.05.2021 15,8 22,3 8,0 60,0 --- 0,0 --- ---
31.05.2021 16,8 24,1 8,5 56,1 --- 0,0 --- ---
01.06.2021 18,2 25,8 9,4 53,8 --- 0,0 --- ---
02.06.2021 20,0 28,8 10,4 55,1 --- 0,0 --- ---
03.06.2021 21,0 27,6 14,8 70,4 --- 0,0 --- ---
04.06.2021 21,4 28,9 16,6 76,1 --- 17,4 --- ---
05.06.2021 18,7 24,1 15,2 88,1 --- 1,7 --- ---
06.06.2021 18,0 21,7 15,9 79,2 --- 0,0 --- ---
07.06.2021 18,1 21,1 16,1 83,1 --- 5,4 --- ---
08.06.2021 20,3 26,1 16,0 74,4 --- 0,0 --- ---
09.06.2021 22,0 28,6 15,6 67,5 --- 0,0 --- ---
10.06.2021 22,7 30,4 17,0 60,3 --- 0,0 --- ---
11.06.2021 22,8 31,2 14,7 61,7 --- 0,0 --- ---
12.06.2021 21,8 27,6 17,3 62,8 --- 0,0 --- ---
13.06.2021 18,9 26,9 12,6 57,8 --- 0,0 --- ---
14.06.2021 20,6 27,7 12,0 58,7 --- 0,0 --- ---
15.06.2021 22,7 30,2 14,7 62,4 --- 0,0 --- ---
16.06.2021 24,5 31,6 17,0 64,5 --- 0,0 --- ---
17.06.2021 26,0 32,6 17,6 63,4 --- 0,0 --- ---
18.06.2021 27,5 33,7 19,4 62,3 --- 0,0 --- ---
19.06.2021 26,8 32,5 19,6 61,3 --- 0,0 --- ---
20.06.2021 25,3 28,2 19,5 63,9 --- 4,6 --- ---
21.06.2021 21,4 27,9 17,5 72,5 --- 0,1 --- ---
22.06.2021 17,4 19,5 14,4 82,2 --- 2,1 --- ---
23.06.2021 20,4 26,6 15,6 73,8 --- 0,0 --- ---
24.06.2021 18,0 19,4 16,9 89,1 --- 13,5 --- ---
25.06.2021 18,7 23,0 14,7 77,1 --- 1,1 --- ---
26.06.2021 20,0 25,9 12,9 67,6 --- 0,0 --- ---
27.06.2021 22,6 27,7 16,9 67,1 --- 0,0 --- ---
28.06.2021 23,6 29,4 16,8 66,3 --- 0,0 --- ---
29.06.2021 19,9 26,8 15,2 80,7 --- 11,2 --- ---
30.06.2021 16,9 20,9 14,0 83,3 --- 2,0 --- ---
01.07.2021 16,6 18,6 15,0 76,6 --- 0,0 --- ---
02.07.2021 19,0 23,9 13,5 68,8 --- 0,0 --- ---
03.07.2021 21,0 27,1 13,6 66,5 --- 0,0 --- ---
04.07.2021 19,4 22,9 16,1 81,3 --- 3,6 --- ---
05.07.2021 18,4 22,7 14,4 87,5 --- 2,9 --- ---
06.07.2021 18,2 20,6 15,8 86,0 --- 12,5 --- ---
07.07.2021 19,5 24,5 14,6 72,8 --- 0,0 --- ---
08.07.2021 18,5 23,4 14,5 80,8 --- 0,3 --- ---
09.07.2021 19,2 24,4 16,0 78,4 --- 3,4 --- ---
10.07.2021 19,5 25,4 13,6 76,0 --- 8,8 --- ---
11.07.2021 19,0 24,2 16,3 81,4 --- 0,0 --- ---
12.07.2021 20,6 26,0 14,2 75,3 --- 0,7 --- ---
13.07.2021 18,7 22,3 16,5 94,3 --- 37,9 --- ---
14.07.2021 17,0 18,0 16,0 90,0 --- 2,0 --- ---
15.07.2021 19,3 25,3 16,0 81,8 --- 1,1 --- ---
16.07.2021 19,8 24,8 16,6 84,4 --- 6,5 --- ---
17.07.2021 21,9 28,5 17,0 73,8 --- 0,0 --- ---
18.07.2021 23,6 30,5 15,9 62,1 --- 0,0 --- ---
19.07.2021 22,1 27,9 16,4 63,9 --- 0,0 --- ---
20.07.2021 19,8 26,9 13,5 64,9 --- 0,0 --- ---
21.07.2021 19,7 25,6 13,0 62,2 --- 0,0 --- ---
22.07.2021 20,7 27,7 14,0 64,8 --- 0,0 --- ---
23.07.2021 21,2 27,6 14,1 64,4 --- 0,0 --- ---
24.07.2021 20,1 24,2 15,8 79,2 --- 5,2 --- ---
25.07.2021 20,8 28,0 16,3 79,5 --- 1,5 --- ---
26.07.2021 21,4 26,9 15,8 74,0 --- 0,0 --- ---
27.07.2021 20,0 25,3 15,7 76,8 --- 2,5 --- ---
28.07.2021 19,6 24,3 15,8 78,1 --- 0,0 --- ---
29.07.2021 19,7 24,1 15,9 65,5 --- 0,0 --- ---
30.07.2021 20,3 26,9 12,6 64,8 --- 0,0 --- ---
31.07.2021 19,8 23,9 14,9 61,7 --- 0,0 --- ---
01.08.2021 19,6 25,6 15,5 65,4 --- 0,0 --- ---
02.08.2021 17,6 23,8 13,8 76,5 --- 0,9 --- ---
03.08.2021 16,5 21,9 13,4 85,0 --- 2,5 --- ---
04.08.2021 17,4 20,8 13,8 82,4 --- 2,0 --- ---
05.08.2021 19,3 24,3 13,6 75,9 --- 0,0 --- ---
06.08.2021 18,5 22,6 14,7 79,3 --- 3,8 --- ---
07.08.2021 17,4 22,2 13,3 83,9 --- 1,8 --- ---
08.08.2021 16,9 20,7 13,3 79,7 --- 0,8 --- ---
09.08.2021 17,3 23,6 11,4 74,6 --- 0,0 --- ---
10.08.2021 19,1 25,5 13,0 72,6 --- 0,0 --- ---
11.08.2021 20,7 27,0 14,2 73,6 --- 0,0 --- ---
12.08.2021 21,6 28,5 15,4 73,4 --- 0,0 --- ---
13.08.2021 23,2 29,5 17,3 72,6 --- 0,0 --- ---
14.08.2021 23,0 30,9 15,9 67,1 --- 0,0 --- ---
15.08.2021 22,5 29,3 15,1 63,7 --- 0,0 --- ---
16.08.2021 18,7 23,4 12,8 69,9 --- 0,4 --- ---
17.08.2021 15,3 19,5 11,1 76,2 --- 2,3 --- ---
18.08.2021 18,2 21,9 14,4 77,7 --- 0,0 --- ---
19.08.2021 19,2 22,6 16,6 79,9 --- 0,9 --- ---
20.08.2021 19,5 24,9 14,2 74,0 --- 0,0 --- ---
21.08.2021 21,0 28,0 14,3 70,9 --- 2,1 --- ---
22.08.2021 19,4 25,2 15,9 82,1 --- 2,0 --- ---
23.08.2021 18,4 24,3 14,1 79,3 --- 0,1 --- ---
24.08.2021 17,5 22,8 12,7 66,5 --- 0,0 --- ---
25.08.2021 18,7 25,7 12,6 63,0 --- 0,0 --- ---
26.08.2021 18,2 22,7 14,9 65,2 --- 0,0 --- ---
27.08.2021 15,6 20,0 11,2 76,6 --- 0,2 --- ---
28.08.2021 16,0 20,0 13,2 79,4 --- 0,8 --- ---
29.08.2021 16,1 17,3 14,7 84,6 --- 0,3 --- ---
30.08.2021 18,3 22,7 15,4 75,3 --- 0,0 --- ---
31.08.2021 18,1 23,7 14,0 70,9 --- 0,0 --- ---
01.09.2021 17,5 24,0 12,4 70,8 --- 0,0 --- ---
02.09.2021 17,7 24,7 10,4 71,5 --- 0,0 --- ---
03.09.2021 19,0 26,5 11,5 68,2 --- 0,0 --- ---
04.09.2021 19,1 26,7 11,9 68,8 --- 0,0 --- ---
05.09.2021 19,8 27,4 13,3 70,9 --- 0,0 --- ---
06.09.2021 20,5 28,6 14,0 69,8 --- 0,0 --- ---
07.09.2021 19,7 26,7 14,4 69,0 --- 0,0 --- ---
08.09.2021 20,3 27,2 13,4 67,6 --- 0,0 --- ---
09.09.2021 20,6 27,5 14,0 75,4 --- 0,0 --- ---
10.09.2021 19,9 24,4 17,6 86,6 --- 3,9 --- ---
11.09.2021 19,0 23,5 15,3 85,3 --- 3,5 --- ---
12.09.2021 18,3 24,7 13,1 73,8 --- 0,0 --- ---
13.09.2021 17,7 24,1 11,8 74,8 --- 0,0 --- ---
14.09.2021 19,1 24,8 13,0 80,3 --- 0,0 --- ---
15.09.2021 19,4 22,8 17,3 91,7 --- 7,1 --- ---
16.09.2021 17,6 20,2 14,1 76,3 --- 0,0 --- ---
17.09.2021 15,7 20,3 11,8 82,9 --- 0,0 --- ---
18.09.2021 16,4 22,9 10,9 78,3 --- 0,0 --- ---
19.09.2021 15,6 21,0 11,4 75,0 --- 0,0 --- ---
20.09.2021 14,5 16,6 12,9 70,1 --- 0,0 --- ---
21.09.2021 14,6 18,8 10,1 61,6 --- 0,0 --- ---
22.09.2021 13,5 20,6 7,8 75,6 --- 0,0 --- ---
23.09.2021 15,8 26,0 7,6 71,7 --- 0,0 --- ---
24.09.2021 16,6 21,5 11,7 76,2 --- 0,0 --- ---
25.09.2021 16,4 24,0 10,2 77,0 --- 0,3 --- ---
26.09.2021 16,3 19,6 12,5 92,5 --- 7,8 --- ---
27.09.2021 16,6 20,2 13,8 91,3 --- 2,5 --- ---
28.09.2021 14,0 18,7 10,4 80,3 --- 0,0 --- ---
29.09.2021 12,7 17,9 9,8 79,8 --- 1,6 --- ---
30.09.2021 11,4 17,0 6,1 75,1 --- 0,0 --- ---
01.10.2021 12,7 19,7 6,6 75,1 --- 0,0 --- ---
02.10.2021 15,9 20,9 11,1 73,8 --- 0,0 --- ---
03.10.2021 18,2 21,1 14,2 70,1 --- 0,1 --- ---
04.10.2021 13,9 16,3 12,2 83,0 --- 0,1 --- ---
05.10.2021 13,3 17,2 10,4 87,1 --- 4,2 --- ---
06.10.2021 12,0 13,8 10,2 83,3 --- 1,6 --- ---
07.10.2021 12,0 17,1 8,3 87,6 --- 1,2 --- ---
08.10.2021 12,1 19,8 7,0 82,1 --- 0,0 --- ---
09.10.2021 12,0 18,5 6,8 73,0 --- 0,0 --- ---
10.10.2021 9,0 15,5 3,8 79,1 --- 0,0 --- ---
11.10.2021 8,8 15,2 4,1 86,1 --- 0,0 --- ---
12.10.2021 10,5 13,4 7,5 89,2 --- 7,0 --- ---
13.10.2021 9,4 13,4 5,8 82,7 --- 0,0 --- ---
14.10.2021 11,0 15,5 8,0 84,1 --- 0,0 --- ---
15.10.2021 9,5 15,2 5,8 87,1 --- 0,0 --- ---
16.10.2021 8,4 15,9 3,9 84,2 --- 0,0 --- ---